My Meet Scores
Bridget Godsen, Midwest Training and Ice Center - MyMeetScores.com
Top100 | Top Teams | Upcoming Meets | Completed Meets | Latest | Add Scores | Help| Support | Bookmark and Share

Bridget Godsen, Midwest Training and Ice Center
Personal Bests
LevelVault BarsBeamFloorAA
39.1509.775 9.6509.30037.500
49.2009.475 9.5759.45036.675
69.0509.000 9.4759.45036.650
Meet Scores
Date Meet Team Session Level Division Vault Bars Beam Floor AA
2020-02-22 Jaycie Phelps Midwest Showdown Midwest Training and Ice Center 5A 6 Senior B 8.650 9 7.750 13 9.250 3 9.450 1T 35.100 7
2020-01-30 Circle of Stars Midwest Training and Ice Center B11 6 Sr B 9.050 6T 9.000 7T 9.475 2 9.125 3 36.650 2
2020-01-24 Midwest Games Midwest Training and Ice Center 3 6 Older 8.850 4 8.700 7 9.300 2 9.275 6 36.125 3
2019-12-20 Aspire Classic - 2019 Midwest Training and Ice Center 1A 6 Older 9.000 5 9.000 5 9.425 2 0.000 18 27.425 17
2019-12-13 Hoosier Cup 2019 Midwest Training and Ice Center 02B 6 Senior 8.575 4 8.900 4 9.425 2T 9.225 2T 36.125 2
2019-03-09 2019 Indiana Level 4-5 State Championships Midwest Training and Ice Center 1-6 4 Sr F 8.600 321T 8.400 355T 9.525 17T 9.450 44* 35.975 178T
2019-01-11 St Jude Benefit Meet Midwest Training and Ice Center 6A 4 Sr B 9.200 5T 8.800 6 9.575 1 9.100 4T 36.675 2
2018-12-07 Horton Invite Midwest Training and Ice Center 2 4 Sr B 8.575 6 9.450 2 8.650 9 8.800 11 35.475 4
2018-03-09 Level 4/5 State Meet Midwest Training and Ice Center 4 4 Sr C 8.425 15 9.225 4 9.150 5 8.650 15T 35.450 7
2018-02-23 Kinetic Classic Midwest Training and Ice Center 7 4 Older 7.850 72T 9.300 7T 8.650 68T 8.550 69T 34.350 56
2018-02-03 Midwest Games Midwest Training and Ice Center 6 4 Sr B 7.400 20 9.125 4 8.875 12 8.950 10 34.350 12T
2018-01-19 2018 Hang 10.0 Invitational Midwest Training and Ice Center 1 4 11 & Up 7.750 13 9.475 1 9.225 2 8.550 7T 35.000 5
2018-01-12 St Jude Benefit Meet Midwest Training and Ice Center 3A 4 SrB 8.050 14 9.125 2 8.875 10T 8.475 12 34.525 10
2017-12-15 2017 Aspire Classic Midwest Training and Ice Center 3 4 Sr B 7.850 19T 9.450 7 8.650 15 8.725 9 34.675 14
2017-11-18 2017 Princess Classic Midwest Training and Ice Center 3 4 12+ yrs 7.775 10 9.075 5 8.475 9 9.025 4 34.350 7
2017-03-04 2017 Indiana Level 2, 3 North State Championships Midwest Training and Ice Center 1 3 Sr C 9.150 19T 9.625 1 9.225 5T 9.150 5 37.150 3
2017-02-24 Kinetic Classic Midwest Training and Ice Center 4,5,6,7 3 All Ages 9.100 47T 9.775 1 9.650 5T 8.975 51T 37.500 8
2017-02-04 Midwest Games Midwest Training and Ice Center 1 3 Sr B 8.400 11 9.300 1 8.850 5T 8.925 5 35.475 7
2017-01-13 St Jude Benefit Meet Midwest Training and Ice Center 8A 3 Sr B 9.050 10T 9.700 1T 8.975 6 9.300 5 37.025 4
2017-01-06 2017 Twistars Invitational Midwest Training and Ice Center 3A 3 C 8.850 6 9.425 1 8.550 13 9.175 3 36.000 1
2016-12-10 2016 Hoosier Cup Midwest Training and Ice Center 03A 3 Junior B 8.825 16 9.425 3T 8.450 13 9.250 5 35.950 7T
Get your scores on
a t-shirt, pin, or hoodie

www.lazysuits.com